Airport View

Enter AWOS ICAO identifier for current METAR.

ex. KFNL

KAXH 212315Z AUTO 14005KT 10SM CLR 29/23 A3001 RMK AO2 T02860232

21 Sep 2019 23:24

Frequency: 123.625

Phone: 281-431-6572

Other Area AWOS: KSGR - KLVJ - KMCJ - KHOU

TAF KLBX 211720Z 2118/2218 12010KT P6SM FEW030 FM220300 14006KT P6SM SCT100 FM221500 14009KT P6SM SCT040